Time;durP1;ratioP1;P1;durP2;ratioP2;P2;SDS_P1;SDS_P2;PMS_P1;PMS_P2;Temp;Humidity;BMP_temperature;BMP_pressure;BME280_temperature;BME280_humidity;BME280_pressure;Samples;Min_cycle;Max_cycle;Signal;HPM_P1;HPM_P2
2021/04/13 00:01:13;;;;;;;;;;;17.90;59.20;;;;;;4057789;29;19915;-60
2021/04/13 00:03:14;;;;;;;;;;;17.90;59.20;;;;;;4054168;29;19919;-59
2021/04/13 00:05:28;;;;;;;;;;;17.90;59.40;;;;;;4055597;29;19918;-59
2021/04/13 00:07:31;;;;;;;;;;;17.90;59.40;;;;;;4051891;29;19923;-62
2021/04/13 00:09:34;;;;;;;;;;;17.90;59.30;;;;;;4052163;29;20038;-60
2021/04/13 00:11:36;;;;;;;;;;;17.90;59.40;;;;;;4056601;29;19970;-60
2021/04/13 00:13:41;;;;;;;;;;;18.00;59.40;;;;;;4053721;29;19930;-61
2021/04/13 00:15:51;;;;;;;;;;;17.90;59.30;;;;;;4052725;29;19955;-61
2021/04/13 00:17:54;;;;;;;;;;;18.00;59.30;;;;;;4054646;29;19973;-62
2021/04/13 00:19:58;;;;;;;;;;;18.00;59.20;;;;;;4053597;29;20068;-59
2021/04/13 00:22:00;;;;;;;;;;;18.00;59.20;;;;;;4052745;29;19919;-54
2021/04/13 00:24:04;;;;;;;;;;;18.00;59.20;;;;;;4052529;29;19928;-59
2021/04/13 00:26:08;;;;;;;;;;;18.00;59.00;;;;;;4050337;29;19934;-59
2021/04/13 00:28:10;;;;;;;;;;;18.00;59.10;;;;;;4052724;29;19919;-58
2021/04/13 00:30:19;;;;;;;;;;;18.10;59.50;;;;;;4051596;29;19915;-56
2021/04/13 00:32:22;;;;;;;;;;;18.10;59.50;;;;;;4052962;29;20014;-58
2021/04/13 00:34:24;;;;;;;;;;;18.10;59.50;;;;;;4053580;29;20022;-59
2021/04/13 00:36:25;;;;;;;;;;;18.10;59.30;;;;;;4053018;29;19926;-60
2021/04/13 00:38:28;;;;;;;;;;;18.10;59.20;;;;;;4053322;29;20322;-60
2021/04/13 00:40:31;;;;;;;;;;;18.20;59.30;;;;;;4054616;29;20289;-57
2021/04/13 00:42:33;;;;;;;;;;;18.20;59.20;;;;;;4050542;29;19938;-62
2021/04/13 00:44:38;;;;;;;;;;;18.20;59.10;;;;;;4053324;29;19919;-57
2021/04/13 00:46:47;;;;;;;;;;;18.20;59.00;;;;;;4050416;29;20305;-59
2021/04/13 00:48:49;;;;;;;;;;;18.30;59.00;;;;;;4053473;29;20321;-60
2021/04/13 00:50:52;;;;;;;;;;;18.30;59.00;;;;;;4050345;29;19957;-60
2021/04/13 00:52:55;;;;;;;;;;;18.30;58.80;;;;;;4047318;29;19934;-60
2021/04/13 00:54:59;;;;;;;;;;;18.30;58.80;;;;;;4053539;29;19919;-58
2021/04/13 00:57:01;;;;;;;;;;;18.30;58.70;;;;;;4053605;28;21308;-54
2021/04/13 00:59:06;;;;;;;;;;;18.40;58.80;;;;;;4054166;29;20029;-60
2021/04/13 01:01:10;;;;;;;;;;;18.40;58.70;;;;;;4050864;29;20491;-57
2021/04/13 01:03:13;;;;;;;;;;;18.40;58.70;;;;;;4051188;29;19919;-57
2021/04/13 01:05:21;;;;;;;;;;;18.50;58.60;;;;;;4051934;29;19922;-59
2021/04/13 01:07:46;;;;;;;;;;;18.50;58.50;;;;;;4051440;29;19919;-59
2021/04/13 01:09:48;;;;;;;;;;;18.50;58.50;;;;;;4050769;28;20311;-60
2021/04/13 01:12:04;;;;;;;;;;;18.50;59.10;;;;;;4052013;29;19983;-54
2021/04/13 01:14:07;;;;;;;;;;;18.60;58.40;;;;;;4047358;29;19923;-59
2021/04/13 01:16:10;;;;;;;;;;;18.60;58.40;;;;;;4052674;29;19986;-60
2021/04/13 01:18:14;;;;;;;;;;;18.60;58.30;;;;;;4053344;29;19919;-58
2021/04/13 01:20:15;;;;;;;;;;;18.70;58.30;;;;;;4053011;29;19919;-58
2021/04/13 01:22:24;;;;;;;;;;;18.70;58.20;;;;;;4052193;28;19926;-60
2021/04/13 01:24:30;;;;;;;;;;;18.70;58.10;;;;;;4055196;29;20019;-61
2021/04/13 01:26:32;;;;;;;;;;;18.70;58.20;;;;;;4058983;29;20330;-60
2021/04/13 01:28:36;;;;;;;;;;;18.70;58.10;;;;;;4058236;29;19919;-60
2021/04/13 01:30:39;;;;;;;;;;;18.80;58.00;;;;;;4060338;29;19934;-55
2021/04/13 01:32:41;;;;;;;;;;;18.80;57.90;;;;;;4058978;29;19982;-60
2021/04/13 01:34:52;;;;;;;;;;;18.80;57.90;;;;;;4054816;29;19915;-58
2021/04/13 01:37:04;;;;;;;;;;;18.80;57.90;;;;;;4050984;28;19919;-60
2021/04/13 01:39:07;;;;;;;;;;;18.90;57.90;;;;;;4055472;29;19911;-61
2021/04/13 01:43:16;;;;;;;;;;;18.90;57.90;;;;;;4045981;29;19974;-58
2021/04/13 01:45:25;;;;;;;;;;;18.90;57.80;;;;;;4053569;29;19969;-59
2021/04/13 01:47:27;;;;;;;;;;;19.00;57.80;;;;;;4052065;29;19927;-58
2021/04/13 01:49:30;;;;;;;;;;;19.00;57.60;;;;;;4050443;29;19930;-55
2021/04/13 01:51:33;;;;;;;;;;;19.00;57.60;;;;;;4053120;28;19922;-59
2021/04/13 01:53:36;;;;;;;;;;;19.00;57.60;;;;;;4049077;29;19994;-59
2021/04/13 01:55:39;;;;;;;;;;;19.00;57.30;;;;;;4053350;29;19919;-61
2021/04/13 01:57:40;;;;;;;;;;;19.00;57.00;;;;;;4045879;29;19919;-60
2021/04/13 01:59:45;;;;;;;;;;;19.00;57.00;;;;;;4051947;29;19915;-57
2021/04/13 02:01:50;;;;;;;;;;;19.00;56.80;;;;;;4048993;29;20587;-59
2021/04/13 02:04:06;;;;;;;;;;;19.00;56.70;;;;;;4046071;29;19930;-59
2021/04/13 02:06:12;;;;;;;;;;;19.10;56.50;;;;;;4050653;29;19912;-57
2021/04/13 02:08:19;;;;;;;;;;;19.00;56.10;;;;;;4043743;29;20399;-51
2021/04/13 02:10:27;;;;;;;;;;;19.00;56.00;;;;;;4051156;29;19958;-65
2021/04/13 02:12:30;;;;;;;;;;;19.00;55.80;;;;;;4047035;29;19927;-59
2021/04/13 02:14:35;;;;;;;;;;;19.00;56.20;;;;;;4051913;29;19921;-59
2021/04/13 02:16:39;;;;;;;;;;;19.00;55.50;;;;;;4050020;29;20372;-60
2021/04/13 02:18:45;;;;;;;;;;;19.10;55.60;;;;;;4046977;29;20519;-61
2021/04/13 02:20:48;;;;;;;;;;;19.10;56.40;;;;;;4052192;29;20400;-60
2021/04/13 02:22:50;;;;;;;;;;;19.10;56.50;;;;;;4048758;29;20025;-61
2021/04/13 02:24:54;;;;;;;;;;;19.10;56.70;;;;;;4045590;29;19923;-61
2021/04/13 02:26:57;;;;;;;;;;;19.20;56.80;;;;;;4049768;29;20475;-56
2021/04/13 02:28:59;;;;;;;;;;;19.20;57.00;;;;;;4052494;29;20506;-55
2021/04/13 02:31:05;;;;;;;;;;;19.20;56.80;;;;;;4050072;29;20682;-57
2021/04/13 02:33:12;;;;;;;;;;;19.20;56.60;;;;;;4048994;29;20314;-57
2021/04/13 02:35:24;;;;;;;;;;;19.30;56.30;;;;;;4047344;29;19923;-55
2021/04/13 02:37:48;;;;;;;;;;;19.30;56.20;;;;;;4047353;28;20549;-57
2021/04/13 02:39:50;;;;;;;;;;;19.30;56.10;;;;;;4047718;29;20271;-55
2021/04/13 02:42:00;;;;;;;;;;;19.40;55.90;;;;;;4047384;29;19978;-57
2021/04/13 02:44:06;;;;;;;;;;;19.40;55.80;;;;;;4050239;29;19919;-55
2021/04/13 02:46:10;;;;;;;;;;;19.40;55.70;;;;;;4047915;29;20316;-56
2021/04/13 02:48:13;;;;;;;;;;;19.40;55.80;;;;;;4047964;29;20405;-58
2021/04/13 02:50:17;;;;;;;;;;;19.50;55.90;;;;;;4052859;29;19915;-55
2021/04/13 02:52:21;;;;;;;;;;;19.50;55.90;;;;;;4044744;29;19939;-54
2021/04/13 02:54:28;;;;;;;;;;;19.50;55.80;;;;;;4048948;29;19919;-57
2021/04/13 02:56:34;;;;;;;;;;;19.50;55.80;;;;;;4055471;29;19915;-57
2021/04/13 02:58:39;;;;;;;;;;;19.60;55.90;;;;;;4051369;29;19954;-57
2021/04/13 03:00:45;;;;;;;;;;;19.60;55.70;;;;;;4045680;29;20258;-59
2021/04/13 03:02:49;;;;;;;;;;;19.60;55.60;;;;;;4053929;29;19911;-57
2021/04/13 03:04:52;;;;;;;;;;;19.70;55.60;;;;;;4050279;29;20304;-57
2021/04/13 03:06:55;;;;;;;;;;;19.70;55.70;;;;;;4051464;29;19919;-58
2021/04/13 03:08:57;;;;;;;;;;;19.70;55.50;;;;;;4046275;29;19954;-59
2021/04/13 03:11:05;;;;;;;;;;;19.80;55.60;;;;;;4051587;29;19923;-57
2021/04/13 03:13:13;;;;;;;;;;;19.70;55.40;;;;;;4048489;29;19923;-60
2021/04/13 03:15:16;;;;;;;;;;;19.80;55.00;;;;;;4050301;29;19919;-58
2021/04/13 03:17:23;;;;;;;;;;;19.80;54.90;;;;;;4053033;29;19918;-63
2021/04/13 03:19:28;;;;;;;;;;;19.80;54.70;;;;;;4046204;28;20333;-62
2021/04/13 03:21:32;;;;;;;;;;;19.80;54.90;;;;;;4050691;29;19971;-61
2021/04/13 03:23:35;;;;;;;;;;;19.80;55.10;;;;;;4048786;29;19930;-59
2021/04/13 03:25:38;;;;;;;;;;;19.90;55.30;;;;;;4048669;29;19923;-59
2021/04/13 03:27:41;;;;;;;;;;;19.90;55.40;;;;;;4050184;29;20014;-60
2021/04/13 03:29:42;;;;;;;;;;;20.00;55.40;;;;;;4053397;29;19911;-60
2021/04/13 03:31:45;;;;;;;;;;;20.10;55.40;;;;;;4044610;29;19922;-57
2021/04/13 03:33:47;;;;;;;;;;;20.10;55.60;;;;;;4051790;28;20025;-60
2021/04/13 03:35:48;;;;;;;;;;;20.10;55.60;;;;;;4055156;29;19922;-61
2021/04/13 03:37:51;;;;;;;;;;;20.20;55.70;;;;;;4052203;29;19923;-59
2021/04/13 03:39:53;;;;;;;;;;;20.20;55.70;;;;;;4052326;29;19941;-63
2021/04/13 03:41:56;;;;;;;;;;;20.30;55.70;;;;;;4055901;29;19921;-61
2021/04/13 03:43:59;;;;;;;;;;;20.40;55.80;;;;;;4050435;29;19915;-60
2021/04/13 03:46:03;;;;;;;;;;;20.40;55.70;;;;;;4053081;29;20392;-60
2021/04/13 03:48:09;;;;;;;;;;;20.50;55.80;;;;;;4055883;29;19919;-60
2021/04/13 03:50:14;;;;;;;;;;;20.60;55.70;;;;;;4053347;29;19915;-59
2021/04/13 03:52:42;;;;;;;;;;;20.60;55.50;;;;;;4052106;29;19982;-61
2021/04/13 03:54:44;;;;;;;;;;;20.70;55.50;;;;;;4051129;29;19919;-60
2021/04/13 03:56:45;;;;;;;;;;;20.80;55.40;;;;;;4055198;29;19969;-58
2021/04/13 03:58:48;;;;;;;;;;;20.90;55.40;;;;;;4054105;29;19923;-60
2021/04/13 04:00:52;;;;;;;;;;;20.90;55.30;;;;;;4051717;29;20046;-59
2021/04/13 04:02:54;;;;;;;;;;;21.00;55.10;;;;;;4053673;29;20054;-59
2021/04/13 04:05:11;;;;;;;;;;;21.00;55.10;;;;;;4049930;29;19947;-58
2021/04/13 04:07:24;;;;;;;;;;;21.10;55.10;;;;;;4036773;29;20041;-59
2021/04/13 04:09:29;;;;;;;;;;;21.20;55.10;;;;;;4053844;29;19973;-58
2021/04/13 04:11:31;;;;;;;;;;;21.20;55.00;;;;;;4053073;29;20064;-58
2021/04/13 04:13:45;;;;;;;;;;;21.30;54.90;;;;;;4052373;28;20381;-59
2021/04/13 04:15:48;;;;;;;;;;;21.30;54.80;;;;;;4050111;28;19915;-58
2021/04/13 04:17:50;;;;;;;;;;;21.40;54.70;;;;;;4055071;29;19974;-58
2021/04/13 04:20:10;;;;;;;;;;;21.50;54.70;;;;;;4052089;29;19942;-58
2021/04/13 04:22:14;;;;;;;;;;;21.50;54.60;;;;;;4055390;29;19927;-56
2021/04/13 04:24:19;;;;;;;;;;;21.60;54.50;;;;;;4051705;29;19923;-59
2021/04/13 04:26:26;;;;;;;;;;;21.70;54.50;;;;;;4053357;29;19927;-54
2021/04/13 04:28:29;;;;;;;;;;;21.70;54.20;;;;;;4052398;29;20013;-56
2021/04/13 04:30:33;;;;;;;;;;;21.90;54.10;;;;;;4051663;29;19919;-58
2021/04/13 04:32:34;;;;;;;;;;;21.90;53.90;;;;;;4054395;29;19969;-60
2021/04/13 04:34:36;;;;;;;;;;;22.00;53.90;;;;;;4053486;29;20396;-60
2021/04/13 04:36:40;;;;;;;;;;;22.00;53.70;;;;;;4056876;29;20354;-61
2021/04/13 04:38:42;;;;;;;;;;;22.10;53.60;;;;;;4050469;29;19919;-57
2021/04/13 04:40:55;;;;;;;;;;;22.20;53.50;;;;;;4051907;29;20159;-59
2021/04/13 04:43:01;;;;;;;;;;;22.30;53.40;;;;;;4048631;29;19923;-57
2021/04/13 04:45:14;;;;;;;;;;;22.30;53.20;;;;;;4052019;29;19915;-60
2021/04/13 04:47:32;;;;;;;;;;;22.30;53.30;;;;;;4053572;29;19923;-60
2021/04/13 04:49:37;;;;;;;;;;;22.30;53.40;;;;;;4047004;29;19935;-57
2021/04/13 04:51:39;;;;;;;;;;;22.30;53.40;;;;;;4051413;29;19918;-59
2021/04/13 04:53:42;;;;;;;;;;;22.30;53.50;;;;;;4050296;29;20262;-59
2021/04/13 04:55:43;;;;;;;;;;;22.30;53.60;;;;;;4051951;29;20427;-60
2021/04/13 04:57:46;;;;;;;;;;;22.30;53.60;;;;;;4051660;29;19919;-59
2021/04/13 04:59:48;;;;;;;;;;;22.30;53.60;;;;;;4047213;29;20041;-58
2021/04/13 05:01:51;;;;;;;;;;;22.30;53.70;;;;;;4050645;28;20223;-58
2021/04/13 05:03:52;;;;;;;;;;;22.40;53.70;;;;;;4049156;29;20010;-52
2021/04/13 05:05:54;;;;;;;;;;;22.40;53.70;;;;;;4051996;29;19963;-58
2021/04/13 05:07:56;;;;;;;;;;;22.40;53.50;;;;;;4050019;29;20166;-59
2021/04/13 05:09:57;;;;;;;;;;;22.50;53.60;;;;;;4051200;29;19918;-58
2021/04/13 05:11:59;;;;;;;;;;;22.50;53.60;;;;;;4049373;29;19922;-60
2021/04/13 05:14:00;;;;;;;;;;;22.50;53.60;;;;;;4047703;29;20006;-60
2021/04/13 05:16:02;;;;;;;;;;;22.60;53.60;;;;;;4052099;28;19941;-60
2021/04/13 05:18:03;;;;;;;;;;;22.70;53.60;;;;;;4049343;29;20397;-60
2021/04/13 05:20:06;;;;;;;;;;;22.70;53.70;;;;;;4054571;29;20555;-61
2021/04/13 05:22:07;;;;;;;;;;;22.80;53.70;;;;;;4052044;29;19915;-61
2021/04/13 05:24:10;;;;;;;;;;;22.80;53.70;;;;;;4051172;28;20072;-60
2021/04/13 05:26:12;;;;;;;;;;;22.90;53.50;;;;;;4055360;29;19919;-61
2021/04/13 05:28:13;;;;;;;;;;;22.90;53.50;;;;;;4051740;29;19975;-61
2021/04/13 05:30:16;;;;;;;;;;;22.90;53.60;;;;;;4048571;28;19934;-64
2021/04/13 05:32:17;;;;;;;;;;;23.00;53.60;;;;;;4049810;29;19922;-62
2021/04/13 05:34:19;;;;;;;;;;;23.00;53.50;;;;;;4052212;29;20029;-64
2021/04/13 05:36:20;;;;;;;;;;;23.10;53.60;;;;;;4051538;29;20014;-61
2021/04/13 05:38:26;;;;;;;;;;;23.10;53.60;;;;;;4053500;29;19922;-61
2021/04/13 05:40:31;;;;;;;;;;;23.10;53.50;;;;;;4051243;29;20014;-60
2021/04/13 05:42:33;;;;;;;;;;;23.10;54.10;;;;;;4053566;29;20400;-60
2021/04/13 05:44:35;;;;;;;;;;;23.20;53.60;;;;;;4050452;29;19915;-60
2021/04/13 05:46:38;;;;;;;;;;;23.20;53.60;;;;;;4050569;29;20018;-59
2021/04/13 05:48:39;;;;;;;;;;;23.20;53.60;;;;;;4046951;29;19923;-59
2021/04/13 05:50:42;;;;;;;;;;;23.20;53.60;;;;;;4051407;29;19915;-59
2021/04/13 05:52:43;;;;;;;;;;;23.20;53.50;;;;;;4048471;29;19924;-59
2021/04/13 05:54:45;;;;;;;;;;;23.20;53.70;;;;;;4045644;29;19919;-59
2021/04/13 05:56:47;;;;;;;;;;;23.20;53.70;;;;;;4051314;29;19974;-59
2021/04/13 05:58:49;;;;;;;;;;;23.20;53.70;;;;;;4049653;29;19954;-58
2021/04/13 06:00:52;;;;;;;;;;;23.30;53.60;;;;;;4051132;28;20503;-58
2021/04/13 06:02:54;;;;;;;;;;;23.30;53.50;;;;;;4051152;29;19955;-59
2021/04/13 06:04:56;;;;;;;;;;;23.30;53.50;;;;;;4051255;29;20066;-59
2021/04/13 06:06:57;;;;;;;;;;;23.30;53.50;;;;;;4058701;29;19929;-59
2021/04/13 06:08:59;;;;;;;;;;;23.30;53.40;;;;;;4056308;29;19914;-55
2021/04/13 06:11:00;;;;;;;;;;;23.30;53.20;;;;;;4057656;29;19930;-57
2021/04/13 06:13:02;;;;;;;;;;;23.30;53.20;;;;;;4054248;29;20847;-55
2021/04/13 06:15:05;;;;;;;;;;;23.40;53.30;;;;;;4057597;28;19915;-54
2021/04/13 06:17:06;;;;;;;;;;;23.40;53.30;;;;;;4060194;29;19915;-56
2021/04/13 06:19:08;;;;;;;;;;;23.40;53.20;;;;;;4051143;28;19919;-58
2021/04/13 06:21:09;;;;;;;;;;;23.40;53.20;;;;;;4051984;29;19914;-57
2021/04/13 06:23:11;;;;;;;;;;;23.40;53.20;;;;;;4053463;29;19930;-57
2021/04/13 06:25:12;;;;;;;;;;;23.40;53.20;;;;;;4048204;29;20016;-55
2021/04/13 06:27:14;;;;;;;;;;;23.50;53.30;;;;;;4052645;29;19977;-53
2021/04/13 06:29:16;;;;;;;;;;;23.50;53.30;;;;;;4052187;29;20444;-58
2021/04/13 06:31:17;;;;;;;;;;;23.50;53.30;;;;;;4047988;29;20943;-59
2021/04/13 06:33:19;;;;;;;;;;;23.50;53.20;;;;;;4046974;29;19927;-52
2021/04/13 06:35:21;;;;;;;;;;;23.50;53.20;;;;;;4050373;29;19945;-50
2021/04/13 06:37:23;;;;;;;;;;;23.50;53.30;;;;;;4050704;29;19919;-60
2021/04/13 06:39:25;;;;;;;;;;;23.50;53.00;;;;;;4049972;29;20261;-60
2021/04/13 06:41:29;;;;;;;;;;;23.50;52.20;;;;;;4051013;29;19921;-59
2021/04/13 06:43:48;;;;;;;;;;;23.40;52.00;;;;;;4050183;29;19926;-59
2021/04/13 06:46:01;;;;;;;;;;;23.40;51.40;;;;;;4052755;29;19930;-59
2021/04/13 06:48:38;;;;;;;;;;;23.40;52.20;;;;;;3948377;29;2829062;-60
2021/04/13 06:50:47;;;;;;;;;;;23.40;51.40;;;;;;4035743;29;19982;-57
2021/04/13 06:52:49;;;;;;;;;;;23.30;51.10;;;;;;4041297;29;19934;-64
2021/04/13 06:54:59;;;;;;;;;;;23.30;51.10;;;;;;4049279;29;19975;-61
2021/04/13 06:57:18;;;;;;;;;;;23.30;52.60;;;;;;4052558;29;19921;-62
2021/04/13 06:59:35;;;;;;;;;;;23.30;52.50;;;;;;4052124;29;19915;-63
2021/04/13 07:01:39;;;;;;;;;;;23.30;52.80;;;;;;4048336;29;19971;-61
2021/04/13 07:04:09;;;;;;;;;;;23.30;52.90;;;;;;4049035;28;20287;-58
2021/04/13 07:06:38;;;;;;;;;;;23.40;53.20;;;;;;4052070;29;19919;-61
2021/04/13 07:08:44;;;;;;;;;;;23.40;53.20;;;;;;4047549;29;20502;-60
2021/04/13 07:10:53;;;;;;;;;;;23.40;53.30;;;;;;4052034;29;20248;-61
2021/04/13 07:13:01;;;;;;;;;;;23.40;53.40;;;;;;4053686;29;19923;-60
2021/04/13 07:15:03;;;;;;;;;;;23.40;53.50;;;;;;4054327;29;20052;-59
2021/04/13 07:17:18;;;;;;;;;;;23.40;53.50;;;;;;4054998;29;19918;-59
2021/04/13 07:19:22;;;;;;;;;;;23.40;53.90;;;;;;4055451;29;19915;-60
2021/04/13 07:21:25;;;;;;;;;;;23.40;53.20;;;;;;4052448;29;20054;-59
2021/04/13 07:23:47;;;;;;;;;;;23.40;53.00;;;;;;4055170;29;19981;-59
2021/04/13 07:25:51;;;;;;;;;;;23.30;52.10;;;;;;4055146;29;19959;-58
2021/04/13 07:28:01;;;;;;;;;;;23.20;51.80;;;;;;4054005;29;19919;-60
2021/04/13 07:30:08;;;;;;;;;;;23.20;51.80;;;;;;4053322;29;20464;-60
2021/04/13 07:32:13;;;;;;;;;;;23.20;52.00;;;;;;4055508;29;19923;-60
2021/04/13 07:34:15;;;;;;;;;;;23.20;51.70;;;;;;4055431;29;19926;-59
2021/04/13 07:36:34;;;;;;;;;;;23.10;52.10;;;;;;4055692;29;19970;-60
2021/04/13 07:38:42;;;;;;;;;;;23.10;51.50;;;;;;4055892;29;19922;-59
2021/04/13 07:40:45;;;;;;;;;;;23.10;51.60;;;;;;4059114;28;19923;-60
2021/04/13 07:42:50;;;;;;;;;;;23.10;51.70;;;;;;4052772;29;19986;-60
2021/04/13 07:45:10;;;;;;;;;;;23.10;51.60;;;;;;4055325;29;19949;-58
2021/04/13 07:47:29;;;;;;;;;;;23.00;51.60;;;;;;4052882;29;20385;-59
2021/04/13 07:49:34;;;;;;;;;;;23.00;51.90;;;;;;4052619;29;19930;-59
2021/04/13 07:51:54;;;;;;;;;;;23.00;51.80;;;;;;4052562;29;20360;-59
2021/04/13 07:54:05;;;;;;;;;;;23.00;51.80;;;;;;4052640;29;19969;-60
2021/04/13 07:56:09;;;;;;;;;;;23.00;51.90;;;;;;4052238;29;20365;-58
2021/04/13 07:58:13;;;;;;;;;;;22.90;52.20;;;;;;4053901;29;20010;-62
2021/04/13 08:00:19;;;;;;;;;;;22.90;52.80;;;;;;4050925;29;20026;-59
2021/04/13 08:02:20;;;;;;;;;;;22.90;52.30;;;;;;4054482;29;19962;-61
2021/04/13 08:04:23;;;;;;;;;;;22.90;52.50;;;;;;4050552;29;20044;-60
2021/04/13 08:06:28;;;;;;;;;;;22.90;52.80;;;;;;4054529;29;19923;-61
2021/04/13 08:08:32;;;;;;;;;;;22.90;52.90;;;;;;4053786;29;19915;-62
2021/04/13 08:10:38;;;;;;;;;;;22.90;53.10;;;;;;4053889;29;20014;-62
2021/04/13 08:12:52;;;;;;;;;;;22.90;52.90;;;;;;4050314;29;19955;-61
2021/04/13 08:14:57;;;;;;;;;;;23.00;53.10;;;;;;4049666;28;19923;-60
2021/04/13 08:17:07;;;;;;;;;;;23.00;53.30;;;;;;4049667;29;19919;-62
2021/04/13 08:19:21;;;;;;;;;;;23.00;53.50;;;;;;4050293;29;20057;-61
2021/04/13 08:21:25;;;;;;;;;;;23.00;53.70;;;;;;4049099;29;19988;-63
2021/04/13 08:23:27;;;;;;;;;;;23.00;53.80;;;;;;4050951;29;19926;-62
2021/04/13 08:25:33;;;;;;;;;;;23.00;53.80;;;;;;4046398;29;19926;-60
2021/04/13 08:27:45;;;;;;;;;;;23.00;54.00;;;;;;4048038;29;19923;-61
2021/04/13 08:29:56;;;;;;;;;;;23.00;54.10;;;;;;4047299;29;20015;-62
2021/04/13 08:34:22;;;;;;;;;;;23.00;54.20;;;;;;4047194;28;20002;-65
2021/04/13 08:36:27;;;;;;;;;;;23.00;54.30;;;;;;4049132;29;19927;-65
2021/04/13 08:38:32;;;;;;;;;;;23.10;54.40;;;;;;4048709;29;20264;-66
2021/04/13 08:40:36;;;;;;;;;;;23.00;54.40;;;;;;4050154;29;20345;-63
2021/04/13 08:42:48;;;;;;;;;;;23.00;54.40;;;;;;4047809;29;20395;-63
2021/04/13 08:44:49;;;;;;;;;;;23.00;54.50;;;;;;4049553;29;20312;-63
2021/04/13 08:46:55;;;;;;;;;;;23.00;54.50;;;;;;4046257;29;19953;-65
2021/04/13 08:49:03;;;;;;;;;;;23.00;54.60;;;;;;4047470;29;20252;-63
2021/04/13 08:51:09;;;;;;;;;;;23.00;54.60;;;;;;4048311;29;19915;-62
2021/04/13 08:53:31;;;;;;;;;;;23.00;54.70;;;;;;4048832;29;20435;-61
2021/04/13 08:55:35;;;;;;;;;;;23.00;54.70;;;;;;4045429;29;21169;-61
2021/04/13 08:57:47;;;;;;;;;;;23.00;54.90;;;;;;4048917;29;19934;-60
2021/04/13 08:59:51;;;;;;;;;;;23.00;55.00;;;;;;4045736;29;19915;-60
2021/04/13 09:02:06;;;;;;;;;;;23.00;54.80;;;;;;4046766;29;20533;-60
2021/04/13 09:04:31;;;;;;;;;;;23.00;54.80;;;;;;4046512;29;20297;-60
2021/04/13 09:06:34;;;;;;;;;;;23.00;54.80;;;;;;4042134;29;19923;-59
2021/04/13 09:08:42;;;;;;;;;;;23.00;54.80;;;;;;4048007;29;20021;-60
2021/04/13 09:11:01;;;;;;;;;;;23.00;54.80;;;;;;4044565;29;19945;-60
2021/04/13 09:13:12;;;;;;;;;;;23.00;54.80;;;;;;4048787;29;20372;-59
2021/04/13 09:15:26;;;;;;;;;;;23.10;54.90;;;;;;4044066;29;20178;-61
2021/04/13 09:17:34;;;;;;;;;;;23.00;54.80;;;;;;4046687;29;19930;-60
2021/04/13 09:19:51;;;;;;;;;;;23.00;54.80;;;;;;4047286;29;20622;-60
2021/04/13 09:21:53;;;;;;;;;;;23.00;54.80;;;;;;4043530;29;19922;-59
2021/04/13 09:24:12;;;;;;;;;;;23.00;54.80;;;;;;4046820;29;19977;-59
2021/04/13 09:26:19;;;;;;;;;;;23.00;54.80;;;;;;4048160;29;20037;-60
2021/04/13 09:28:25;;;;;;;;;;;23.00;54.80;;;;;;4047899;29;20106;-59
2021/04/13 09:30:29;;;;;;;;;;;23.00;54.80;;;;;;4046452;29;19923;-60
2021/04/13 09:32:37;;;;;;;;;;;23.00;54.80;;;;;;4047416;29;20098;-59
2021/04/13 09:34:52;;;;;;;;;;;23.00;54.80;;;;;;4046188;28;19918;-60
2021/04/13 09:36:57;;;;;;;;;;;23.00;54.90;;;;;;4050671;29;19927;-60
2021/04/13 09:39:16;;;;;;;;;;;23.00;54.90;;;;;;4046595;28;19933;-62
2021/04/13 09:41:36;;;;;;;;;;;23.00;55.00;;;;;;4047964;29;19919;-60
2021/04/13 09:43:56;;;;;;;;;;;23.00;55.00;;;;;;4045072;29;20010;-59
2021/04/13 09:46:09;;;;;;;;;;;22.90;54.90;;;;;;4046712;29;19919;-60
2021/04/13 09:48:28;;;;;;;;;;;23.00;55.10;;;;;;4046666;29;20946;-60
2021/04/13 09:50:59;;;;;;;;;;;22.90;55.10;;;;;;4050074;29;19973;-53
2021/04/13 09:53:19;;;;;;;;;;;22.90;55.10;;;;;;4046211;29;19931;-60
2021/04/13 09:55:46;;;;;;;;;;;22.90;55.20;;;;;;4046810;29;20017;-60
2021/04/13 09:57:53;;;;;;;;;;;22.90;54.90;;;;;;4050485;29;19919;-59
2021/04/13 09:59:54;;;;;;;;;;;22.90;54.60;;;;;;4047919;29;19911;-60
2021/04/13 10:01:59;;;;;;;;;;;22.80;54.50;;;;;;4049853;29;20346;-59
2021/04/13 10:04:19;;;;;;;;;;;22.80;54.40;;;;;;4047700;29;19919;-59
2021/04/13 10:06:25;;;;;;;;;;;22.80;54.30;;;;;;4044862;29;19950;-60
2021/04/13 10:08:32;;;;;;;;;;;22.70;54.10;;;;;;4046909;29;19942;-59
2021/04/13 10:10:42;;;;;;;;;;;22.70;55.30;;;;;;4048290;29;19918;-58
2021/04/13 10:12:56;;;;;;;;;;;22.70;55.90;;;;;;4044809;29;20564;-55
2021/04/13 10:15:17;;;;;;;;;;;22.70;56.00;;;;;;4044385;29;20511;-61
2021/04/13 10:17:18;;;;;;;;;;;22.80;56.40;;;;;;4043708;29;20590;-61
2021/04/13 10:19:38;;;;;;;;;;;22.70;56.60;;;;;;4049824;29;19919;-58
2021/04/13 10:21:39;;;;;;;;;;;22.80;56.70;;;;;;4048016;29;19918;-61
2021/04/13 10:23:50;;;;;;;;;;;22.80;56.80;;;;;;4053044;29;19995;-60
2021/04/13 10:26:12;;;;;;;;;;;22.80;56.90;;;;;;4045648;29;19915;-59
2021/04/13 10:28:32;;;;;;;;;;;22.80;57.00;;;;;;4047550;29;20506;-59
2021/04/13 10:31:04;;;;;;;;;;;22.80;57.20;;;;;;4044428;29;20329;-60
2021/04/13 10:33:34;;;;;;;;;;;22.80;57.10;;;;;;4044013;29;20035;-57
2021/04/13 10:35:54;;;;;;;;;;;22.80;57.20;;;;;;4047541;29;19919;-59
2021/04/13 10:37:56;;;;;;;;;;;22.80;57.00;;;;;;4047738;29;20027;-58
2021/04/13 10:40:00;;;;;;;;;;;22.80;57.10;;;;;;4050005;29;19927;-62
2021/04/13 10:42:02;;;;;;;;;;;22.80;57.10;;;;;;4056578;29;19915;-61
2021/04/13 10:44:26;;;;;;;;;;;22.80;57.10;;;;;;4052983;29;19955;-60
2021/04/13 10:46:32;;;;;;;;;;;22.80;57.20;;;;;;4054308;28;19929;-59
2021/04/13 10:48:57;;;;;;;;;;;22.70;57.00;;;;;;4053489;29;19927;-59
2021/04/13 10:51:16;;;;;;;;;;;22.70;57.10;;;;;;4032628;29;19961;-59
2021/04/13 10:53:18;;;;;;;;;;;22.80;57.20;;;;;;4047142;29;19923;-59
2021/04/13 10:55:38;;;;;;;;;;;22.70;57.10;;;;;;4042878;29;19930;-60
2021/04/13 10:57:42;;;;;;;;;;;22.70;57.10;;;;;;4048661;29;19930;-59
2021/04/13 11:00:02;;;;;;;;;;;22.70;57.10;;;;;;4047042;29;19929;-59
2021/04/13 11:02:22;;;;;;;;;;;22.70;57.10;;;;;;4045852;29;19930;-62
2021/04/13 11:04:26;;;;;;;;;;;22.70;57.10;;;;;;4047232;29;19919;-61
2021/04/13 11:06:53;;;;;;;;;;;22.70;57.10;;;;;;4045651;29;19930;-62
2021/04/13 11:09:13;;;;;;;;;;;22.70;57.10;;;;;;4045679;29;19987;-60
2021/04/13 11:11:14;;;;;;;;;;;22.70;57.00;;;;;;4051819;29;19994;-60
2021/04/13 11:13:28;;;;;;;;;;;22.70;57.10;;;;;;4043820;29;19931;-58
2021/04/13 11:15:47;;;;;;;;;;;22.70;57.10;;;;;;4044165;29;20414;-59
2021/04/13 11:17:56;;;;;;;;;;;22.70;57.20;;;;;;4046670;29;19993;-60
2021/04/13 11:20:19;;;;;;;;;;;22.60;57.10;;;;;;4046004;29;20337;-60
2021/04/13 11:22:36;;;;;;;;;;;22.60;57.10;;;;;;4044077;29;20188;-58
2021/04/13 11:24:40;;;;;;;;;;;22.60;57.20;;;;;;4045866;29;20374;-62
2021/04/13 11:27:00;;;;;;;;;;;22.60;57.20;;;;;;4049394;29;19997;-58
2021/04/13 11:29:04;;;;;;;;;;;22.60;57.20;;;;;;4044929;29;19978;-60
2021/04/13 11:31:24;;;;;;;;;;;22.60;57.20;;;;;;4046091;29;19923;-59
2021/04/13 11:33:30;;;;;;;;;;;22.50;57.30;;;;;;4044365;29;19934;-59
2021/04/13 11:35:42;;;;;;;;;;;22.60;57.40;;;;;;4046774;29;20392;-60
2021/04/13 11:37:53;;;;;;;;;;;22.50;57.40;;;;;;4041818;29;19926;-61
2021/04/13 11:40:09;;;;;;;;;;;22.50;57.40;;;;;;4043616;29;19927;-61
2021/04/13 11:42:21;;;;;;;;;;;22.50;57.50;;;;;;4048766;29;19986;-59
2021/04/13 11:44:49;;;;;;;;;;;22.50;57.40;;;;;;4047543;29;19915;-57
2021/04/13 11:46:56;;;;;;;;;;;22.50;57.30;;;;;;4045226;29;19919;-58
2021/04/13 11:49:02;;;;;;;;;;;22.50;57.80;;;;;;4049437;29;19919;-58
2021/04/13 11:51:03;;;;;;;;;;;22.50;56.90;;;;;;4045710;29;19930;-59
2021/04/13 11:53:07;;;;;;;;;;;22.40;56.60;;;;;;4051685;29;19934;-56
2021/04/13 11:55:30;;;;;;;;;;;22.40;56.40;;;;;;4044371;29;20006;-55
2021/04/13 11:57:54;;;;;;;;;;;22.40;56.10;;;;;;4041467;29;20385;-56
2021/04/13 12:00:11;;;;;;;;;;;22.40;56.20;;;;;;4043737;29;20030;-58
2021/04/13 12:02:23;;;;;;;;;;;22.40;56.30;;;;;;4054800;29;19918;-55
2021/04/13 12:04:44;;;;;;;;;;;22.30;56.90;;;;;;4049862;29;19919;-55
2021/04/13 12:06:48;;;;;;;;;;;22.30;56.20;;;;;;4048603;29;19926;-56
2021/04/13 12:08:51;;;;;;;;;;;22.30;56.20;;;;;;4052659;29;19922;-61
2021/04/13 12:10:54;;;;;;;;;;;22.30;56.20;;;;;;4050780;29;19978;-59
2021/04/13 12:12:56;;;;;;;;;;;22.20;56.40;;;;;;4048029;29;19996;-54
2021/04/13 12:15:17;;;;;;;;;;;22.20;56.40;;;;;;4048178;29;20026;-51
2021/04/13 12:17:37;;;;;;;;;;;22.20;56.30;;;;;;4015410;29;20404;-55
2021/04/13 12:19:58;;;;;;;;;;;22.20;56.20;;;;;;4047806;29;20456;-50
2021/04/13 12:22:00;;;;;;;;;;;22.20;56.20;;;;;;4044391;29;19927;-61
2021/04/13 12:24:04;;;;;;;;;;;22.20;56.20;;;;;;4049471;29;19926;-55
2021/04/13 12:26:08;;;;;;;;;;;22.20;56.20;;;;;;4051524;29;19947;-58